• Join FlightAware (Why Join?)
  • Login
  • US Flag 
03:34AM EDT


 

Airport Tracker/Info


-or-


 

Live Flight TrackerFlight Track Log ✈ DAL6035 ✈ 28-Apr-2013 ✈ KMHT - KLGA

Flight Track Log - Related Links

Times and Time Zones

All times are in EDT time to prevent confusion due to time zone crossing. See the DAL6035 flight status page for this flight to view local times or setup timezone preferences in your user account.

Time Position Orientation Groundspeed Altitude Reporting Facility
EDT Latitude Longitude Course Direction KTS MPH feet Rate Location/Type
01:26PM 42.8667 -71.4333 194° South 195 224 2,800  Level KA90
01:28PM 42.9908 -70.8741 144° Southeast  Level FlightAware Approximate
01:28PM 42.9031 -71.2922 71° East 283 326 7,800  Level Boston Center
01:29PM 42.8761 -70.9263 202° Southwest  Level FlightAware Approximate
01:29PM 42.9483 -71.2203 49° Northeast 272 313 9,800  Level Boston Center
01:30PM 42.7583 -70.9793 200° South  Level FlightAware Approximate
01:30PM 43.0075 -71.1256 49° Northeast 287 330 12,000  Level Boston Center
01:31PM 43.0525 -71.0394 54° Northeast 298 343 13,500 1,380 Climbing Boston Center
01:32PM 43.0194 -70.9122 110° East 296 341 14,800 1,200 Climbing Boston Center
01:33PM 42.9319 -70.9117 180° South 301 346 15,900 1,140 Climbing Boston Center
01:34PM 42.8222 -70.9625 199° South 341 392 17,100 900 Climbing Boston Center
01:35PM 42.7208 -71.0131 200° South 387 445 17,800 600 Climbing Boston Center
01:36PM 42.6108 -71.0633 199° South 410 472 18,300 600 Climbing Boston Center
01:37PM 42.5117 -71.1333 207° Southwest 410 472 19,000 600 Climbing Boston Center
01:38PM 42.4672 -71.2553 244° Southwest 386 444 19,600 720 Climbing Boston Center
01:39PM 42.4247 -71.3994 248° West 395 455 20,500 900 Climbing Boston Center
01:40PM 42.3719 -71.5408 243° Southwest 415 478 21,500 720 Climbing Boston Center
01:41PM 42.3186 -71.6792 242° Southwest 415 478 22,000 240 Climbing Boston Center
01:42PM 42.2653 -71.8228 243° Southwest 426 490 22,000  Level Boston Center
01:43PM 42.2119 -71.9692 244° Southwest 431 496 22,000 -240 Level Boston Center
01:44PM 42.1500 -72.1378 244° Southwest 425 489 21,600 -840 Descending Boston Center
01:45PM 42.0961 -72.2750 242° Southwest 425 489 20,400 -1,320 Descending Boston Center
01:46PM 42.0397 -72.4317 244° Southwest 425 489 19,000 -1,320 Descending Boston Center
01:47PM 41.9939 -72.5517 243° Southwest 420 483 17,800 -1,320 Descending Boston Center
01:48PM 41.9417 -72.6883 243° Southwest 420 483 16,400 -1,620 Descending Boston Center
01:49PM 41.8828 -72.8278 240° Southwest 409 471 14,600 -1,200 Descending Boston Center
01:50PM 41.8303 -72.9556 241° Southwest 404 465 14,000 -300 Descending Boston Center
01:51PM 41.7797 -73.0775 241° Southwest 393 452 14,000  Level Boston Center
01:52PM 41.7311 -73.1939 241° Southwest 393 452 14,000  Level Boston Center
01:53PM 41.6736 -73.3322 241° Southwest 393 452 14,000 -240 Level Boston Center
01:54PM 41.6228 -73.4425 238° Southwest 398 458 13,600 -540 Descending Boston Center
01:55PM 41.5406 -73.5522 225° Southwest 387 445 13,000 -660 Descending Boston Center
01:56PM 41.4667 -73.6333 219° Southwest 384 442 12,400 -1,620 Descending New York TRACON
01:57PM 41.4000 -73.7333 228° Southwest 339 390 10,000 -1,860 Descending New York TRACON
01:58PM 41.3333 -73.7667 201° Southwest 267 307 8,700 -1,020 Descending New York TRACON
01:59PM 41.2667 -73.7167 151° Southeast 273 314 8,000 -660 Descending New York TRACON
02:00PM 41.2000 -73.6667 151° Southeast 277 319 7,400 -1,200 Descending New York TRACON
02:01PM 41.1333 -73.6167 151° Southeast 273 314 5,700 -1,680 Descending New York TRACON
02:02PM 41.0667 -73.6333 191° South 259 298 4,100 -900 Descending New York TRACON
02:03PM 41.0000 -73.6833 210° Southwest 254 292 4,000 -300 Descending New York TRACON
02:04PM 40.9500 -73.7333 217° Southwest 208 239 3,500 -600 Descending New York TRACON
02:05PM 40.9167 -73.7667 217° Southwest 198 228 2,800 -900 Descending New York TRACON
02:06PM 40.8667 -73.8000 207° Southwest 186 214 1,800 -1,020 Descending New York TRACON